Time,TemperatureF,DewpointF,PressureIn,WindDirection,WindDirectionDegrees,WindSpeedMPH,WindSpeedGustMPH,Humidity,HourlyPrecipIn,Conditions,Clouds,dailyrainin,SolarRadiationWatts/m^2,SoftwareType,DateUTC
2013-08-07 00:21:00,57.0,53.0,-100.00,South,183,7.0,9.0,85,0.00,,,0.00,0.000000,,2013-08-07 07:21:00,
2013-08-07 00:33:00,57.0,53.0,-100.00,South,183,7.0,9.0,85,0.00,,,0.00,0.000000,,2013-08-07 07:33:00,
2013-08-07 00:43:00,57.0,53.0,-100.00,South,183,7.0,9.0,85,0.00,,,0.00,0.000000,,2013-08-07 07:43:00,
2013-08-07 00:50:00,56.0,51.0,-100.00,SSW,196,6.0,10.0,84,0.00,,,0.00,0.000000,,2013-08-07 07:50:00,
2013-08-07 01:22:00,56.0,51.0,-100.00,SSW,196,6.0,10.0,84,0.00,,,0.00,0.000000,,2013-08-07 08:22:00,
2013-08-07 01:32:00,56.0,51.0,-100.00,SSW,196,6.0,10.0,84,0.00,,,0.00,0.000000,,2013-08-07 08:32:00,
2013-08-07 01:43:00,56.0,51.0,-100.00,SSW,196,6.0,10.0,84,0.00,,,0.00,0.000000,,2013-08-07 08:43:00,
2013-08-07 01:50:00,55.0,51.0,-100.00,South,182,6.0,10.0,85,0.00,,,0.00,0.000000,,2013-08-07 08:50:00,
2013-08-07 02:22:00,55.0,51.0,-100.00,South,182,6.0,10.0,85,0.00,,,0.00,0.000000,,2013-08-07 09:22:00,
2013-08-07 02:32:00,55.0,51.0,-100.00,South,182,6.0,10.0,85,0.00,,,0.00,0.000000,,2013-08-07 09:32:00,
2013-08-07 02:43:00,55.0,51.0,-100.00,South,182,6.0,10.0,85,0.00,,,0.00,0.000000,,2013-08-07 09:43:00,
2013-08-07 02:50:00,55.0,51.0,-100.00,South,175,5.0,8.0,85,0.00,,,0.00,0.000000,,2013-08-07 09:50:00,
2013-08-07 03:21:00,55.0,51.0,-100.00,South,175,5.0,8.0,85,0.00,,,0.00,0.000000,,2013-08-07 10:21:00,
2013-08-07 03:32:00,55.0,51.0,-100.00,South,175,5.0,8.0,85,0.00,,,0.00,0.000000,,2013-08-07 10:32:00,
2013-08-07 03:43:00,55.0,51.0,-100.00,South,175,5.0,8.0,85,0.00,,,0.00,0.000000,,2013-08-07 10:43:00,
2013-08-07 03:50:00,55.0,50.0,-100.00,South,173,3.0,7.0,84,0.00,,,0.00,0.000000,,2013-08-07 10:50:00,
2013-08-07 04:22:00,55.0,50.0,-100.00,South,173,3.0,7.0,84,0.00,,,0.00,0.000000,,2013-08-07 11:22:00,
2013-08-07 04:32:00,55.0,50.0,-100.00,South,173,3.0,7.0,84,0.00,,,0.00,0.000000,,2013-08-07 11:32:00,
2013-08-07 04:43:00,55.0,50.0,-100.00,South,173,3.0,7.0,84,0.00,,,0.00,0.000000,,2013-08-07 11:43:00,
2013-08-07 04:50:00,54.0,50.0,-100.00,South,183,4.0,9.0,86,0.00,,,0.00,0.000000,,2013-08-07 11:50:00,
2013-08-07 05:22:00,54.0,50.0,-100.00,South,183,4.0,9.0,86,0.00,,,0.00,0.000000,,2013-08-07 12:22:00,
2013-08-07 05:32:00,54.0,50.0,-100.00,South,183,4.0,9.0,86,0.00,,,0.00,0.000000,,2013-08-07 12:32:00,
2013-08-07 05:43:00,54.0,50.0,-100.00,South,183,4.0,9.0,86,0.00,,,0.00,0.000000,,2013-08-07 12:43:00,
2013-08-07 05:50:00,54.0,49.0,-100.00,SE,135,6.0,10.0,83,0.00,,,0.00,0.000000,,2013-08-07 12:50:00,
2013-08-07 06:22:00,54.0,49.0,-100.00,SE,135,6.0,10.0,83,0.00,,,0.00,0.000000,,2013-08-07 13:22:00,
2013-08-07 06:32:00,54.0,49.0,-100.00,SE,135,6.0,10.0,83,0.00,,,0.00,0.000000,,2013-08-07 13:32:00,
2013-08-07 06:44:00,54.0,49.0,-100.00,SE,135,6.0,10.0,83,0.00,,,0.00,0.000000,,2013-08-07 13:44:00,
2013-08-07 06:50:00,55.0,50.0,-100.00,SE,131,6.0,12.0,82,0.00,,,0.00,5.000000,,2013-08-07 13:50:00,
2013-08-07 07:22:00,55.0,50.0,-100.00,SE,131,6.0,12.0,82,0.00,,,0.00,5.000000,,2013-08-07 14:22:00,
2013-08-07 07:33:00,55.0,50.0,-100.00,SE,131,6.0,12.0,82,0.00,,,0.00,5.000000,,2013-08-07 14:33:00,
2013-08-07 07:42:00,55.0,50.0,-100.00,SE,131,6.0,12.0,82,0.00,,,0.00,5.000000,,2013-08-07 14:42:00,
2013-08-07 07:50:00,55.0,49.0,-100.00,ESE,118,6.0,11.0,81,0.00,,,0.00,56.000000,,2013-08-07 14:50:00,
2013-08-07 08:22:00,55.0,49.0,-100.00,ESE,118,6.0,11.0,81,0.00,,,0.00,56.000000,,2013-08-07 15:22:00,
2013-08-07 08:33:00,55.0,49.0,-100.00,ESE,118,6.0,11.0,81,0.00,,,0.00,56.000000,,2013-08-07 15:33:00,
2013-08-07 08:43:00,55.0,49.0,-100.00,ESE,118,6.0,11.0,81,0.00,,,0.00,56.000000,,2013-08-07 15:43:00,
2013-08-07 08:50:00,57.0,51.0,-100.00,SE,124,6.0,12.0,79,0.00,,,0.00,148.000000,,2013-08-07 15:50:00,
2013-08-07 09:22:00,57.0,51.0,-100.00,SE,124,6.0,12.0,79,0.00,,,0.00,148.000000,,2013-08-07 16:22:00,
2013-08-07 09:33:00,57.0,51.0,-100.00,SE,124,6.0,12.0,79,0.00,,,0.00,148.000000,,2013-08-07 16:33:00,
2013-08-07 09:43:00,57.0,51.0,-100.00,SE,124,6.0,12.0,79,0.00,,,0.00,148.000000,,2013-08-07 16:43:00,
2013-08-07 09:50:00,61.0,52.0,-100.00,South,174,6.0,10.0,71,0.00,,,0.00,253.000000,,2013-08-07 16:50:00,
2013-08-07 10:11:00,61.0,52.0,-100.00,South,174,6.0,10.0,71,0.00,,,0.00,253.000000,,2013-08-07 17:11:00,
2013-08-07 10:22:00,61.0,52.0,-100.00,South,174,6.0,10.0,71,0.00,,,0.00,253.000000,,2013-08-07 17:22:00,
2013-08-07 10:33:00,61.0,52.0,-100.00,South,174,6.0,10.0,71,0.00,,,0.00,253.000000,,2013-08-07 17:33:00,
2013-08-07 10:43:00,61.0,52.0,-100.00,South,174,6.0,10.0,71,0.00,,,0.00,253.000000,,2013-08-07 17:43:00,
2013-08-07 10:50:00,65.0,53.0,-100.00,SE,139,7.0,12.0,65,0.00,,,0.00,79.000000,,2013-08-07 17:50:00,
2013-08-07 11:22:00,65.0,53.0,-100.00,SE,139,7.0,12.0,65,0.00,,,0.00,79.000000,,2013-08-07 18:22:00,
2013-08-07 11:32:00,65.0,53.0,-100.00,SE,139,7.0,12.0,65,0.00,,,0.00,79.000000,,2013-08-07 18:32:00,
2013-08-07 11:43:00,65.0,53.0,-100.00,SE,139,7.0,12.0,65,0.00,,,0.00,79.000000,,2013-08-07 18:43:00,
2013-08-07 11:50:00,68.0,53.0,-100.00,SSW,198,10.0,16.0,59,0.00,,,0.00,3.000000,,2013-08-07 18:50:00,
2013-08-07 12:22:00,68.0,53.0,-100.00,SSW,198,10.0,16.0,59,0.00,,,0.00,3.000000,,2013-08-07 19:22:00,
2013-08-07 12:32:00,68.0,53.0,-100.00,SSW,198,10.0,16.0,59,0.00,,,0.00,3.000000,,2013-08-07 19:32:00,
2013-08-07 12:44:00,68.0,53.0,-100.00,SSW,198,10.0,16.0,59,0.00,,,0.00,3.000000,,2013-08-07 19:44:00,
2013-08-07 12:50:00,69.0,54.0,-100.00,SSW,192,12.0,18.0,58,0.00,,,0.00,4.000000,,2013-08-07 19:50:00,
2013-08-07 13:22:00,69.0,54.0,-100.00,SSW,192,12.0,18.0,58,0.00,,,0.00,4.000000,,2013-08-07 20:22:00,
2013-08-07 13:32:00,69.0,54.0,-100.00,SSW,192,12.0,18.0,58,0.00,,,0.00,4.000000,,2013-08-07 20:32:00,
2013-08-07 13:43:00,69.0,54.0,-100.00,SSW,192,12.0,18.0,58,0.00,,,0.00,4.000000,,2013-08-07 20:43:00,
2013-08-07 13:50:00,70.0,55.0,-100.00,South,184,10.0,17.0,58,0.00,,,0.00,4.000000,,2013-08-07 20:50:00,
2013-08-07 14:22:00,70.0,55.0,-100.00,South,184,10.0,17.0,58,0.00,,,0.00,4.000000,,2013-08-07 21:22:00,
2013-08-07 14:32:00,70.0,55.0,-100.00,South,184,10.0,17.0,58,0.00,,,0.00,4.000000,,2013-08-07 21:32:00,
2013-08-07 14:43:00,70.0,55.0,-100.00,South,184,10.0,17.0,58,0.00,,,0.00,4.000000,,2013-08-07 21:43:00,
2013-08-07 14:50:00,72.0,55.0,-100.00,South,185,8.0,18.0,55,0.00,,,0.00,36.000000,,2013-08-07 21:50:00,
2013-08-07 15:22:00,72.0,55.0,-100.00,South,185,8.0,18.0,55,0.00,,,0.00,36.000000,,2013-08-07 22:22:00,
2013-08-07 15:32:00,72.0,55.0,-100.00,South,185,8.0,18.0,55,0.00,,,0.00,36.000000,,2013-08-07 22:32:00,
2013-08-07 15:43:00,72.0,55.0,-100.00,South,185,8.0,18.0,55,0.00,,,0.00,36.000000,,2013-08-07 22:43:00,
2013-08-07 15:50:00,72.0,54.0,-100.00,SW,226,10.0,20.0,54,0.00,,,0.00,28.000000,,2013-08-07 22:50:00,
2013-08-07 16:22:00,72.0,54.0,-100.00,SW,226,10.0,20.0,54,0.00,,,0.00,28.000000,,2013-08-07 23:22:00,
2013-08-07 16:32:00,72.0,54.0,-100.00,SW,226,10.0,20.0,54,0.00,,,0.00,28.000000,,2013-08-07 23:32:00,
2013-08-07 16:43:00,72.0,54.0,-100.00,SW,226,10.0,20.0,54,0.00,,,0.00,28.000000,,2013-08-07 23:43:00,
2013-08-07 16:50:00,73.0,55.0,-100.00,SW,225,9.0,14.0,54,0.00,,,0.00,36.000000,,2013-08-07 23:50:00,
2013-08-07 17:22:00,73.0,55.0,-100.00,SW,225,9.0,14.0,54,0.00,,,0.00,36.000000,,2013-08-08 00:22:00,
2013-08-07 17:32:00,73.0,55.0,-100.00,SW,225,9.0,14.0,54,0.00,,,0.00,36.000000,,2013-08-08 00:32:00,
2013-08-07 17:42:00,73.0,55.0,-100.00,SW,225,9.0,14.0,54,0.00,,,0.00,36.000000,,2013-08-08 00:42:00,
2013-08-07 17:50:00,71.0,55.0,-100.00,SW,214,9.0,16.0,57,0.00,,,0.00,63.000000,,2013-08-08 00:50:00,
2013-08-07 18:22:00,71.0,55.0,-100.00,SW,214,9.0,16.0,57,0.00,,,0.00,63.000000,,2013-08-08 01:22:00,
2013-08-07 18:32:00,71.0,55.0,-100.00,SW,214,9.0,16.0,57,0.00,,,0.00,63.000000,,2013-08-08 01:32:00,
2013-08-07 18:43:00,71.0,55.0,-100.00,SW,214,9.0,16.0,57,0.00,,,0.00,63.000000,,2013-08-08 01:43:00,
2013-08-07 18:50:00,68.0,54.0,-100.00,South,185,7.0,16.0,60,0.00,,,0.00,60.000000,,2013-08-08 01:50:00,
2013-08-07 19:22:00,68.0,54.0,-100.00,South,185,7.0,16.0,60,0.00,,,0.00,60.000000,,2013-08-08 02:22:00,
2013-08-07 19:32:00,68.0,54.0,-100.00,South,185,7.0,16.0,60,0.00,,,0.00,60.000000,,2013-08-08 02:32:00,
2013-08-07 19:42:00,68.0,54.0,-100.00,South,185,7.0,16.0,60,0.00,,,0.00,60.000000,,2013-08-08 02:42:00,
2013-08-07 19:50:00,65.0,52.0,-100.00,South,185,5.0,9.0,63,0.00,,,0.00,33.000000,,2013-08-08 02:50:00,
2013-08-07 20:22:00,65.0,52.0,-100.00,South,185,5.0,9.0,63,0.00,,,0.00,33.000000,,2013-08-08 03:22:00,
2013-08-07 20:32:00,65.0,52.0,-100.00,South,185,5.0,9.0,63,0.00,,,0.00,33.000000,,2013-08-08 03:32:00,
2013-08-07 20:43:00,65.0,52.0,-100.00,South,185,5.0,9.0,63,0.00,,,0.00,33.000000,,2013-08-08 03:43:00,
2013-08-07 20:50:00,62.0,53.0,-100.00,NW,322,9.0,14.0,73,0.00,,,0.00,8.000000,,2013-08-08 03:50:00,
2013-08-07 21:22:00,62.0,53.0,-100.00,NW,322,9.0,14.0,73,0.00,,,0.00,8.000000,,2013-08-08 04:22:00,
2013-08-07 21:32:00,62.0,53.0,-100.00,NW,322,9.0,14.0,73,0.00,,,0.00,8.000000,,2013-08-08 04:32:00,
2013-08-07 21:43:00,62.0,53.0,-100.00,NW,322,9.0,14.0,73,0.00,,,0.00,8.000000,,2013-08-08 04:43:00,
2013-08-07 21:50:00,60.0,52.0,-100.00,NW,321,7.0,12.0,75,0.00,,,0.00,0.000000,,2013-08-08 04:50:00,
2013-08-07 22:21:00,60.0,52.0,-100.00,NW,321,7.0,12.0,75,0.00,,,0.00,0.000000,,2013-08-08 05:21:00,
2013-08-07 22:33:00,60.0,52.0,-100.00,NW,321,7.0,12.0,75,0.00,,,0.00,0.000000,,2013-08-08 05:33:00,
2013-08-07 22:43:00,60.0,52.0,-100.00,NW,321,7.0,12.0,75,0.00,,,0.00,0.000000,,2013-08-08 05:43:00,
2013-08-07 22:50:00,60.0,52.0,-100.00,NW,307,7.0,10.0,76,0.00,,,0.00,0.000000,,2013-08-08 05:50:00,
2013-08-07 23:21:00,60.0,52.0,-100.00,NW,307,7.0,10.0,76,0.00,,,0.00,0.000000,,2013-08-08 06:21:00,
2013-08-07 23:32:00,60.0,52.0,-100.00,NW,307,7.0,10.0,76,0.00,,,0.00,0.000000,,2013-08-08 06:32:00,
2013-08-07 23:42:00,60.0,52.0,-100.00,NW,307,7.0,10.0,76,0.00,,,0.00,0.000000,,2013-08-08 06:42:00,
2013-08-07 23:50:00,59.0,52.0,-100.00,NW,326,7.0,10.0,79,0.00,,,0.00,0.000000,,2013-08-08 06:50:00,